Time;durP1;ratioP1;P1;durP2;ratioP2;P2;SDS_P1;SDS_P2;PMS_P1;PMS_P2;Temp;Humidity;BMP_temperature;BMP_pressure;BME280_temperature;BME280_humidity;BME280_pressure;Samples;Min_cycle;Max_cycle;Signal;HPM_P1;HPM_P2
2022/05/06 00:01:28;;;;;;;;;;;14.20;93.50;;;;;;5052008;28;19972;-89
2022/05/06 00:03:53;;;;;;;;;;;14.20;93.50;;;;;;5053285;28;20360;-89
2022/05/06 00:06:20;;;;;;;;;;;14.30;93.50;;;;;;5053173;28;20372;-89
2022/05/06 00:08:46;;;;;;;;;;;14.30;93.50;;;;;;5053075;28;19976;-89
2022/05/06 00:11:11;;;;;;;;;;;14.30;93.50;;;;;;5053127;28;19942;-89
2022/05/06 00:13:37;;;;;;;;;;;14.30;93.50;;;;;;5052950;28;19955;-89
2022/05/06 00:16:03;;;;;;;;;;;14.30;93.50;;;;;;5052931;28;19960;-89
2022/05/06 00:18:31;;;;;;;;;;;14.20;93.60;;;;;;5053001;28;19972;-89
2022/05/06 00:20:57;;;;;;;;;;;14.30;93.70;;;;;;5053022;28;20020;-89
2022/05/06 00:23:23;;;;;;;;;;;14.30;93.70;;;;;;5053082;28;19955;-89
2022/05/06 00:25:48;;;;;;;;;;;14.40;93.60;;;;;;5052732;28;19958;-89
2022/05/06 00:28:14;;;;;;;;;;;14.40;93.60;;;;;;5053008;28;19954;-89
2022/05/06 00:30:40;;;;;;;;;;;14.40;93.60;;;;;;5053207;28;20339;-89
2022/05/06 00:33:07;;;;;;;;;;;14.30;93.50;;;;;;5053778;28;19978;-89
2022/05/06 00:35:33;;;;;;;;;;;14.30;93.50;;;;;;5056884;28;19951;-89
2022/05/06 00:37:58;;;;;;;;;;;14.30;93.50;;;;;;5056786;28;19977;-89
2022/05/06 00:40:24;;;;;;;;;;;14.40;93.60;;;;;;5056966;28;19931;-89
2022/05/06 00:42:51;;;;;;;;;;;14.40;93.50;;;;;;5056959;28;20036;-89
2022/05/06 00:45:17;;;;;;;;;;;14.40;93.40;;;;;;5056724;28;19951;-89
2022/05/06 00:47:43;;;;;;;;;;;14.30;93.50;;;;;;5056813;28;20044;-89
2022/05/06 00:50:09;;;;;;;;;;;14.40;93.50;;;;;;5056803;28;19952;-89
2022/05/06 00:52:35;;;;;;;;;;;14.40;93.50;;;;;;5056782;28;19993;-89
2022/05/06 00:55:00;;;;;;;;;;;14.40;93.50;;;;;;5056855;28;20004;-89
2022/05/06 00:57:26;;;;;;;;;;;14.30;93.60;;;;;;5056572;28;20434;-88
2022/05/06 01:02:37;;;;;;;;;;;14.40;93.80;;;;;;5056879;28;20325;-89
2022/05/06 01:05:03;;;;;;;;;;;14.40;93.80;;;;;;5056289;28;20056;-89
2022/05/06 01:07:29;;;;;;;;;;;14.40;93.80;;;;;;5056407;28;20459;-89
2022/05/06 01:09:54;;;;;;;;;;;14.40;93.80;;;;;;5056408;28;19966;-89
2022/05/06 01:12:20;;;;;;;;;;;14.50;93.80;;;;;;5056603;28;20031;-89
2022/05/06 01:14:45;;;;;;;;;;;14.50;93.70;;;;;;5054832;28;19944;-89
2022/05/06 01:17:11;;;;;;;;;;;14.50;93.60;;;;;;5056056;28;19974;-89
2022/05/06 01:19:36;;;;;;;;;;;14.50;93.50;;;;;;5056252;28;19962;-89
2022/05/06 01:22:02;;;;;;;;;;;14.50;93.50;;;;;;5056000;28;19971;-89
2022/05/06 01:24:27;;;;;;;;;;;14.50;93.50;;;;;;5056221;28;20430;-89
2022/05/06 01:27:01;;;;;;;;;;;14.50;93.30;;;;;;5056134;28;19946;-89
2022/05/06 01:29:29;;;;;;;;;;;14.50;93.20;;;;;;5056140;28;19953;-89
2022/05/06 01:31:55;;;;;;;;;;;14.50;93.10;;;;;;5055774;28;19947;-89
2022/05/06 01:34:22;;;;;;;;;;;14.40;93.10;;;;;;5055981;28;19941;-89
2022/05/06 01:36:49;;;;;;;;;;;14.40;93.10;;;;;;5056181;28;20450;-89
2022/05/06 01:39:18;;;;;;;;;;;14.50;93.20;;;;;;5055915;28;19958;-89
2022/05/06 01:41:45;;;;;;;;;;;14.40;93.00;;;;;;5055590;28;20414;-90
2022/05/06 01:44:12;;;;;;;;;;;14.50;92.90;;;;;;5055802;28;19951;-89
2022/05/06 01:46:38;;;;;;;;;;;14.40;92.70;;;;;;5055008;28;19947;-89
2022/05/06 01:49:04;;;;;;;;;;;14.40;92.50;;;;;;5055729;28;19951;-89
2022/05/06 01:51:30;;;;;;;;;;;14.40;92.30;;;;;;5055384;28;20328;-89
2022/05/06 01:53:56;;;;;;;;;;;14.40;92.20;;;;;;5055486;28;19990;-89
2022/05/06 01:56:21;;;;;;;;;;;14.40;92.00;;;;;;5055542;28;19951;-89
2022/05/06 01:58:51;;;;;;;;;;;14.40;91.90;;;;;;5055452;28;19983;-89
2022/05/06 02:01:17;;;;;;;;;;;14.40;91.70;;;;;;5055266;28;19963;-89
2022/05/06 02:06:26;;;;;;;;;;;14.30;91.80;;;;;;5055420;28;19983;-89
2022/05/06 02:08:52;;;;;;;;;;;14.30;91.90;;;;;;5055313;28;19963;-89
2022/05/06 02:11:18;;;;;;;;;;;14.30;92.00;;;;;;5055045;28;19966;-89
2022/05/06 02:13:44;;;;;;;;;;;14.20;92.00;;;;;;5055265;28;19951;-89
2022/05/06 02:16:10;;;;;;;;;;;14.20;92.00;;;;;;5054956;28;20506;-89
2022/05/06 02:18:35;;;;;;;;;;;14.10;92.10;;;;;;5055093;28;20075;-89
2022/05/06 02:21:01;;;;;;;;;;;14.10;92.30;;;;;;5055012;28;20013;-89
2022/05/06 02:23:27;;;;;;;;;;;14.20;92.40;;;;;;5055100;28;19958;-89
2022/05/06 02:25:53;;;;;;;;;;;14.20;92.40;;;;;;5055015;28;19993;-89
2022/05/06 02:28:19;;;;;;;;;;;14.20;92.40;;;;;;5054929;28;20003;-89
2022/05/06 02:33:30;;;;;;;;;;;14.20;92.20;;;;;;5054544;28;19965;-89
2022/05/06 02:35:56;;;;;;;;;;;14.20;92.20;;;;;;5054786;28;20487;-89
2022/05/06 02:38:22;;;;;;;;;;;14.20;92.40;;;;;;5054646;28;20049;-89
2022/05/06 02:40:48;;;;;;;;;;;14.20;92.50;;;;;;5054411;28;19947;-89
2022/05/06 02:43:14;;;;;;;;;;;14.20;92.50;;;;;;5053383;28;19955;-89
2022/05/06 02:45:41;;;;;;;;;;;14.20;92.50;;;;;;5054883;28;20314;-89
2022/05/06 02:48:06;;;;;;;;;;;14.20;92.60;;;;;;5053293;28;20431;-89
2022/05/06 02:50:32;;;;;;;;;;;14.20;92.60;;;;;;5054407;28;20044;-89
2022/05/06 02:52:57;;;;;;;;;;;14.20;92.60;;;;;;5054799;28;19943;-89
2022/05/06 02:55:23;;;;;;;;;;;14.20;92.60;;;;;;5054541;28;20436;-89
2022/05/06 02:57:49;;;;;;;;;;;14.30;92.80;;;;;;5053186;28;20052;-89
2022/05/06 03:00:15;;;;;;;;;;;14.20;92.70;;;;;;5054143;28;20055;-89
2022/05/06 03:02:41;;;;;;;;;;;14.20;92.70;;;;;;5054339;28;20389;-89
2022/05/06 03:05:07;;;;;;;;;;;14.20;92.70;;;;;;5054444;28;19954;-89
2022/05/06 03:07:32;;;;;;;;;;;14.20;92.80;;;;;;5054181;28;20084;-89
2022/05/06 03:09:58;;;;;;;;;;;14.20;92.80;;;;;;5053916;28;20001;-89
2022/05/06 03:12:26;;;;;;;;;;;14.30;92.90;;;;;;5054080;28;20047;-89
2022/05/06 03:14:52;;;;;;;;;;;14.20;92.90;;;;;;5054104;28;19941;-89
2022/05/06 03:17:18;;;;;;;;;;;14.20;92.80;;;;;;5053789;28;19988;-89
2022/05/06 03:19:43;;;;;;;;;;;14.20;92.80;;;;;;5054060;28;20548;-89
2022/05/06 03:22:09;;;;;;;;;;;14.20;92.80;;;;;;5054075;28;20388;-89
2022/05/06 03:24:34;;;;;;;;;;;14.20;92.90;;;;;;5054178;28;20323;-89
2022/05/06 03:27:00;;;;;;;;;;;14.20;92.80;;;;;;5052629;28;20392;-90
2022/05/06 03:29:26;;;;;;;;;;;14.20;92.80;;;;;;5053885;28;19955;-89
2022/05/06 03:31:56;;;;;;;;;;;14.20;92.90;;;;;;5053529;28;19960;-89
2022/05/06 03:34:21;;;;;;;;;;;14.20;92.90;;;;;;5053755;28;20031;-89
2022/05/06 03:36:47;;;;;;;;;;;14.20;92.90;;;;;;5053670;28;19977;-89
2022/05/06 03:39:13;;;;;;;;;;;14.20;92.80;;;;;;5053557;28;20423;-89
2022/05/06 03:41:38;;;;;;;;;;;14.20;92.80;;;;;;5053589;28;19939;-89
2022/05/06 03:44:06;;;;;;;;;;;14.10;93.00;;;;;;5053585;28;19997;-89
2022/05/06 03:46:32;;;;;;;;;;;14.10;93.10;;;;;;5053516;28;19952;-89
2022/05/06 03:48:59;;;;;;;;;;;14.10;93.20;;;;;;5053301;28;20065;-89
2022/05/06 03:51:25;;;;;;;;;;;14.00;93.30;;;;;;5053487;28;19946;-89
2022/05/06 03:53:51;;;;;;;;;;;14.10;93.40;;;;;;5053432;28;19957;-89
2022/05/06 03:56:18;;;;;;;;;;;14.10;93.50;;;;;;5053384;28;20201;-89
2022/05/06 03:58:44;;;;;;;;;;;14.00;93.50;;;;;;5051764;28;19962;-89
2022/05/06 04:01:10;;;;;;;;;;;14.10;93.50;;;;;;5053279;28;19977;-89
2022/05/06 04:03:35;;;;;;;;;;;14.10;93.40;;;;;;5053320;28;19933;-89
2022/05/06 04:06:01;;;;;;;;;;;14.10;93.40;;;;;;5053245;28;19947;-89
2022/05/06 04:08:27;;;;;;;;;;;14.10;93.30;;;;;;5052792;28;20467;-89
2022/05/06 04:10:53;;;;;;;;;;;14.10;93.10;;;;;;5053166;28;19957;-89
2022/05/06 04:13:19;;;;;;;;;;;14.10;93.00;;;;;;5053184;28;19948;-89
2022/05/06 04:18:11;;;;;;;;;;;14.10;92.80;;;;;;5099207;22;19994;-89
2022/05/06 04:23:29;;;;;;;;;;;14.10;92.80;;;;;;5093247;28;20010;-89
2022/05/06 04:26:01;;;;;;;;;;;14.00;92.60;;;;;;5093240;28;19954;-89
2022/05/06 04:28:27;;;;;;;;;;;14.00;92.60;;;;;;5092936;28;19953;-89
2022/05/06 04:30:53;;;;;;;;;;;14.00;92.70;;;;;;5093172;28;19957;-89
2022/05/06 04:33:19;;;;;;;;;;;14.10;92.80;;;;;;5092932;28;19976;-89
2022/05/06 04:35:44;;;;;;;;;;;14.10;92.90;;;;;;5093162;28;19945;-89
2022/05/06 04:38:11;;;;;;;;;;;14.10;92.80;;;;;;5092830;28;19972;-89
2022/05/06 04:40:37;;;;;;;;;;;14.10;92.80;;;;;;5093000;28;20404;-89
2022/05/06 04:43:03;;;;;;;;;;;14.10;92.80;;;;;;5093046;28;19980;-89
2022/05/06 04:45:29;;;;;;;;;;;14.10;92.80;;;;;;5093078;28;19997;-89
2022/05/06 04:47:55;;;;;;;;;;;14.10;92.70;;;;;;5092590;28;20426;-89
2022/05/06 04:50:21;;;;;;;;;;;14.10;92.60;;;;;;5092964;28;20331;-89
2022/05/06 04:52:47;;;;;;;;;;;14.10;92.70;;;;;;5092568;28;19953;-89
2022/05/06 04:55:12;;;;;;;;;;;14.10;92.70;;;;;;5092159;28;20052;-90
2022/05/06 04:57:38;;;;;;;;;;;14.10;92.60;;;;;;5091152;28;19965;-89
2022/05/06 05:00:04;;;;;;;;;;;14.10;92.60;;;;;;5091361;28;19965;-89
2022/05/06 05:02:29;;;;;;;;;;;14.10;92.50;;;;;;5092277;28;19960;-89
2022/05/06 05:04:58;;;;;;;;;;;14.10;92.40;;;;;;5092078;28;20396;-89
2022/05/06 05:07:24;;;;;;;;;;;14.10;92.40;;;;;;5092182;28;19948;-89
2022/05/06 05:09:50;;;;;;;;;;;14.10;92.30;;;;;;5080632;28;20065;-89
2022/05/06 05:12:16;;;;;;;;;;;14.10;92.20;;;;;;5072122;28;19996;-88
2022/05/06 05:14:41;;;;;;;;;;;14.10;92.20;;;;;;5073077;28;20315;-89
2022/05/06 05:17:11;;;;;;;;;;;14.20;92.10;;;;;;5071710;28;19990;-89
2022/05/06 05:19:37;;;;;;;;;;;14.20;92.10;;;;;;5069110;28;19954;-89
2022/05/06 05:22:03;;;;;;;;;;;14.20;92.00;;;;;;5075533;28;20464;-89
2022/05/06 05:24:29;;;;;;;;;;;14.30;91.90;;;;;;5075574;28;19958;-89
2022/05/06 05:26:54;;;;;;;;;;;14.30;91.80;;;;;;5075829;28;19997;-89
2022/05/06 05:29:20;;;;;;;;;;;14.30;91.70;;;;;;5072512;28;20002;-89
2022/05/06 05:31:45;;;;;;;;;;;14.30;91.70;;;;;;5074690;28;19962;-89
2022/05/06 05:34:11;;;;;;;;;;;14.30;91.60;;;;;;5075126;28;20015;-89
2022/05/06 05:36:36;;;;;;;;;;;14.40;91.40;;;;;;5073636;28;19983;-89
2022/05/06 05:39:02;;;;;;;;;;;14.40;91.40;;;;;;5077731;28;20309;-89
2022/05/06 05:41:28;;;;;;;;;;;14.40;91.30;;;;;;5070281;28;20435;-89
2022/05/06 05:49:21;;;;;;;;;;;14.50;91.20;;;;;;5075364;28;19980;-89
2022/05/06 05:51:47;;;;;;;;;;;14.50;91.10;;;;;;5056726;28;19955;-89
2022/05/06 05:54:15;;;;;;;;;;;14.50;91.10;;;;;;5071760;28;20048;-88
2022/05/06 05:56:41;;;;;;;;;;;14.50;91.30;;;;;;5071160;28;20021;-89
2022/05/06 05:59:06;;;;;;;;;;;14.60;91.30;;;;;;5073877;28;19986;-90
2022/05/06 06:01:32;;;;;;;;;;;14.60;91.10;;;;;;5073287;28;19999;-89
2022/05/06 06:03:58;;;;;;;;;;;14.60;91.10;;;;;;5074348;28;20060;-89
2022/05/06 06:06:23;;;;;;;;;;;14.60;91.10;;;;;;5078328;28;19961;-89
2022/05/06 06:08:49;;;;;;;;;;;14.70;91.10;;;;;;5080754;28;20007;-89
2022/05/06 06:11:14;;;;;;;;;;;14.70;91.10;;;;;;5083051;28;19962;-89
2022/05/06 06:13:40;;;;;;;;;;;14.70;90.90;;;;;;5074636;28;19955;-89
2022/05/06 06:16:05;;;;;;;;;;;14.70;90.90;;;;;;5074254;28;19969;-89
2022/05/06 06:18:31;;;;;;;;;;;14.80;90.80;;;;;;5074196;28;19984;-89
2022/05/06 06:20:56;;;;;;;;;;;14.80;90.70;;;;;;5071394;28;19977;-90
2022/05/06 06:23:23;;;;;;;;;;;14.70;90.60;;;;;;5051852;28;19986;-89
2022/05/06 06:25:48;;;;;;;;;;;14.80;90.50;;;;;;5077543;28;19961;-89
2022/05/06 06:28:14;;;;;;;;;;;14.80;90.50;;;;;;5072687;28;20110;-89
2022/05/06 06:30:40;;;;;;;;;;;14.80;90.60;;;;;;5070177;28;20067;-89
2022/05/06 06:33:09;;;;;;;;;;;14.80;90.40;;;;;;5072394;28;19965;-89
2022/05/06 06:35:34;;;;;;;;;;;14.90;90.40;;;;;;5073472;28;19987;-89
2022/05/06 06:38:00;;;;;;;;;;;14.90;90.20;;;;;;5076407;28;20419;-89
2022/05/06 06:40:26;;;;;;;;;;;14.90;90.10;;;;;;5074961;28;19960;-89
2022/05/06 06:42:52;;;;;;;;;;;14.90;90.10;;;;;;5072805;28;19986;-89
2022/05/06 06:45:17;;;;;;;;;;;15.00;89.90;;;;;;5073629;28;20010;-89
2022/05/06 06:47:43;;;;;;;;;;;15.00;89.80;;;;;;5081338;28;19983;-89
2022/05/06 06:50:09;;;;;;;;;;;15.00;89.70;;;;;;5076714;28;20315;-89
2022/05/06 06:52:35;;;;;;;;;;;15.00;89.70;;;;;;5081598;28;20373;-90
2022/05/06 06:55:00;;;;;;;;;;;15.00;89.70;;;;;;5086253;28;19950;-89
2022/05/06 06:57:28;;;;;;;;;;;15.10;89.70;;;;;;5088682;28;20097;-89
2022/05/06 06:59:55;;;;;;;;;;;15.10;89.70;;;;;;5082039;28;19955;-89
2022/05/06 07:02:20;;;;;;;;;;;15.10;89.60;;;;;;5084568;28;20054;-89
2022/05/06 07:04:46;;;;;;;;;;;15.10;89.60;;;;;;5067540;28;19994;-89
2022/05/06 07:12:39;;;;;;;;;;;15.10;90.20;;;;;;5078870;28;20061;-89
2022/05/06 07:15:05;;;;;;;;;;;15.10;90.10;;;;;;5072496;28;20051;-89
2022/05/06 07:17:31;;;;;;;;;;;15.10;90.10;;;;;;5088130;28;20357;-89
2022/05/06 07:19:56;;;;;;;;;;;15.10;90.10;;;;;;5083449;28;19992;-89
2022/05/06 07:22:22;;;;;;;;;;;15.10;90.30;;;;;;5074740;28;19958;-89
2022/05/06 07:24:47;;;;;;;;;;;15.20;90.30;;;;;;5071410;28;20070;-89
2022/05/06 07:27:14;;;;;;;;;;;15.20;90.40;;;;;;5080171;28;19961;-89
2022/05/06 07:29:39;;;;;;;;;;;15.30;90.30;;;;;;5071432;28;20468;-90
2022/05/06 07:32:05;;;;;;;;;;;15.30;90.20;;;;;;5071720;28;20098;-89
2022/05/06 07:34:30;;;;;;;;;;;15.40;90.00;;;;;;5068750;28;20001;-89
2022/05/06 07:36:56;;;;;;;;;;;15.40;89.90;;;;;;5070096;28;20045;-89
2022/05/06 07:39:22;;;;;;;;;;;15.40;89.70;;;;;;5083084;28;19971;-89
2022/05/06 07:41:47;;;;;;;;;;;15.50;89.80;;;;;;5074785;28;19958;-89
2022/05/06 07:44:13;;;;;;;;;;;15.50;89.70;;;;;;5070550;28;20415;-89
2022/05/06 07:46:39;;;;;;;;;;;15.60;89.50;;;;;;5069542;28;19964;-89
2022/05/06 07:49:05;;;;;;;;;;;15.70;89.30;;;;;;5064746;28;19959;-89
2022/05/06 07:51:30;;;;;;;;;;;15.60;89.40;;;;;;5072880;28;19986;-89
2022/05/06 07:53:56;;;;;;;;;;;15.70;89.10;;;;;;5070682;28;20012;-89
2022/05/06 07:56:22;;;;;;;;;;;15.70;89.00;;;;;;5064731;28;19989;-89
2022/05/06 07:58:49;;;;;;;;;;;15.80;88.90;;;;;;5073884;28;19972;-89
2022/05/06 08:01:14;;;;;;;;;;;15.80;88.80;;;;;;5072786;28;19959;-90
2022/05/06 08:06:24;;;;;;;;;;;15.80;88.90;;;;;;5072949;28;20425;-89
2022/05/06 08:08:50;;;;;;;;;;;15.80;88.70;;;;;;5063518;28;19972;-89
2022/05/06 08:11:17;;;;;;;;;;;15.80;88.50;;;;;;5068656;28;19958;-88
2022/05/06 08:13:44;;;;;;;;;;;15.70;88.30;;;;;;5074074;28;19942;-89
2022/05/06 08:16:10;;;;;;;;;;;15.70;88.30;;;;;;5070804;28;19991;-89
2022/05/06 08:18:36;;;;;;;;;;;15.70;88.30;;;;;;5070511;28;20032;-89
2022/05/06 08:21:02;;;;;;;;;;;15.80;88.50;;;;;;5078817;28;19946;-89
2022/05/06 08:23:27;;;;;;;;;;;15.80;88.60;;;;;;5080237;28;20029;-89
2022/05/06 08:25:53;;;;;;;;;;;15.80;88.60;;;;;;5070757;28;19991;-89
2022/05/06 08:28:19;;;;;;;;;;;15.90;88.60;;;;;;5076287;28;19958;-89
2022/05/06 08:30:46;;;;;;;;;;;15.90;88.60;;;;;;5071481;28;20304;-89
2022/05/06 08:33:11;;;;;;;;;;;16.00;88.60;;;;;;5052208;28;20045;-89
2022/05/06 08:35:37;;;;;;;;;;;16.10;88.20;;;;;;5072110;28;20046;-89
2022/05/06 08:38:03;;;;;;;;;;;16.10;88.10;;;;;;5054531;28;20384;-89
2022/05/06 08:40:31;;;;;;;;;;;16.20;87.80;;;;;;5070195;28;20906;-89
2022/05/06 08:42:57;;;;;;;;;;;16.30;87.40;;;;;;5070839;28;19950;-89
2022/05/06 08:50:55;;;;;;;;;;;16.40;86.90;;;;;;5069992;28;19961;-89
2022/05/06 08:53:22;;;;;;;;;;;16.50;86.60;;;;;;5074856;28;20402;-90
2022/05/06 08:55:48;;;;;;;;;;;16.60;86.70;;;;;;5052013;28;19962;-90
2022/05/06 08:58:14;;;;;;;;;;;16.60;86.20;;;;;;5073682;28;19981;-90
2022/05/06 09:00:40;;;;;;;;;;;16.70;85.80;;;;;;5073470;28;20017;-90
2022/05/06 09:03:05;;;;;;;;;;;16.80;85.90;;;;;;5072477;28;19971;-90
2022/05/06 09:05:31;;;;;;;;;;;16.80;86.00;;;;;;5078785;28;20418;-90
2022/05/06 09:07:57;;;;;;;;;;;16.80;85.90;;;;;;5076688;28;20426;-90
2022/05/06 09:10:23;;;;;;;;;;;16.90;85.90;;;;;;5081339;28;19987;-90
2022/05/06 09:12:51;;;;;;;;;;;16.90;85.70;;;;;;5072806;28;19983;-90
2022/05/06 09:18:02;;;;;;;;;;;17.00;85.40;;;;;;5071927;28;20014;-89
2022/05/06 09:20:28;;;;;;;;;;;17.00;85.40;;;;;;5071589;28;20900;-89
2022/05/06 09:22:54;;;;;;;;;;;17.10;85.10;;;;;;5071596;28;20054;-90
2022/05/06 09:25:34;;;;;;;;;;;17.10;85.00;;;;;;5072704;28;19950;-89
2022/05/06 09:28:00;;;;;;;;;;;17.10;85.20;;;;;;5071181;28;20241;-89
2022/05/06 09:30:25;;;;;;;;;;;17.10;85.80;;;;;;5075420;28;20588;-89
2022/05/06 09:32:51;;;;;;;;;;;17.10;85.60;;;;;;5076118;28;19967;-89
2022/05/06 09:35:18;;;;;;;;;;;17.20;86.20;;;;;;5076783;28;19968;-89
2022/05/06 09:37:48;;;;;;;;;;;17.20;84.30;;;;;;5075446;28;19984;-89
2022/05/06 09:40:15;;;;;;;;;;;17.20;83.50;;;;;;5075456;28;20001;-89
2022/05/06 09:43:01;;;;;;;;;;;17.10;83.60;;;;;;5073780;28;19994;-89
2022/05/06 09:45:30;;;;;;;;;;;17.00;83.60;;;;;;5068822;28;19955;-89
2022/05/06 09:48:03;;;;;;;;;;;17.10;84.60;;;;;;5071886;28;19955;-89
2022/05/06 09:50:33;;;;;;;;;;;17.10;84.30;;;;;;5068359;28;19941;-89
2022/05/06 09:53:00;;;;;;;;;;;17.10;84.10;;;;;;5072005;28;19950;-89
2022/05/06 09:55:27;;;;;;;;;;;17.00;83.30;;;;;;5068941;28;19955;-89
2022/05/06 09:57:53;;;;;;;;;;;16.90;83.10;;;;;;5070977;28;19985;-89
2022/05/06 10:00:18;;;;;;;;;;;16.90;82.40;;;;;;5072808;28;20499;-89
2022/05/06 10:02:44;;;;;;;;;;;16.80;81.80;;;;;;5070120;28;20037;-89
2022/05/06 10:05:10;;;;;;;;;;;16.70;83.20;;;;;;5074099;28;19969;-89
2022/05/06 10:07:37;;;;;;;;;;;16.80;83.40;;;;;;5072345;28;20037;-89
2022/05/06 10:10:05;;;;;;;;;;;16.90;84.40;;;;;;5067278;28;19957;-89
2022/05/06 10:12:36;;;;;;;;;;;16.80;83.50;;;;;;5065906;28;20388;-89
2022/05/06 10:15:05;;;;;;;;;;;16.80;84.30;;;;;;5054664;28;19992;-88
2022/05/06 10:17:46;;;;;;;;;;;16.70;83.60;;;;;;5054755;28;19964;-89
2022/05/06 10:20:32;;;;;;;;;;;16.60;83.30;;;;;;5054833;28;19974;-89
2022/05/06 10:22:58;;;;;;;;;;;16.70;83.30;;;;;;5061038;28;19944;-89
2022/05/06 10:25:42;;;;;;;;;;;16.70;83.80;;;;;;5074833;28;20052;-89
2022/05/06 10:34:14;;;;;;;;;;;16.90;84.00;;;;;;5074633;28;19957;-89
2022/05/06 10:36:41;;;;;;;;;;;17.00;83.40;;;;;;5074504;28;19953;-88
2022/05/06 10:39:22;;;;;;;;;;;17.10;83.00;;;;;;5074651;28;19969;-89
2022/05/06 10:42:00;;;;;;;;;;;17.00;82.50;;;;;;5074491;28;20020;-89
2022/05/06 10:44:45;;;;;;;;;;;17.10;82.70;;;;;;5074148;28;19930;-89
2022/05/06 10:47:16;;;;;;;;;;;17.10;82.00;;;;;;5074782;28;20009;-89
2022/05/06 10:49:46;;;;;;;;;;;17.30;81.70;;;;;;5074439;28;19937;-89
2022/05/06 10:52:19;;;;;;;;;;;17.30;81.40;;;;;;5074175;28;20000;-89
2022/05/06 10:54:47;;;;;;;;;;;17.40;81.60;;;;;;5074169;28;20070;-89
2022/05/06 10:57:13;;;;;;;;;;;17.50;80.40;;;;;;5074241;28;19958;-89
2022/05/06 10:59:51;;;;;;;;;;;17.70;81.30;;;;;;5074253;28;20008;-89
2022/05/06 11:02:16;;;;;;;;;;;17.80;79.50;;;;;;5072196;28;19965;-89
2022/05/06 11:04:51;;;;;;;;;;;17.80;78.50;;;;;;5073136;28;19959;-89
2022/05/06 11:07:17;;;;;;;;;;;17.80;78.30;;;;;;5072956;28;20028;-89
2022/05/06 11:09:43;;;;;;;;;;;17.80;78.40;;;;;;5071639;28;19955;-89
2022/05/06 11:12:09;;;;;;;;;;;17.80;78.10;;;;;;5073596;28;20408;-89
2022/05/06 11:14:35;;;;;;;;;;;17.80;78.70;;;;;;5073540;28;19948;-89
2022/05/06 11:17:16;;;;;;;;;;;17.70;78.60;;;;;;5073440;28;19981;-89
2022/05/06 11:19:42;;;;;;;;;;;17.60;79.20;;;;;;5073343;28;20431;-89
2022/05/06 11:22:08;;;;;;;;;;;17.60;79.60;;;;;;5072568;28;19940;-89
2022/05/06 11:24:34;;;;;;;;;;;17.40;79.20;;;;;;5072555;28;20410;-89
2022/05/06 11:27:18;;;;;;;;;;;17.30;79.60;;;;;;5073175;28;19950;-89
2022/05/06 11:29:51;;;;;;;;;;;17.20;80.10;;;;;;5068200;28;19963;-89
2022/05/06 11:32:17;;;;;;;;;;;17.10;81.00;;;;;;5068306;28;19929;-89
2022/05/06 11:35:05;;;;;;;;;;;17.10;81.10;;;;;;5073048;28;19964;-88
2022/05/06 11:37:33;;;;;;;;;;;17.10;81.00;;;;;;5043998;28;20508;-88
2022/05/06 11:42:43;;;;;;;;;;;16.90;82.30;;;;;;5070753;28;19938;-89
2022/05/06 11:48:03;;;;;;;;;;;16.80;82.30;;;;;;5072290;28;19930;-89
2022/05/06 11:50:28;;;;;;;;;;;16.80;82.50;;;;;;5072399;28;19932;-89
2022/05/06 11:52:56;;;;;;;;;;;16.80;83.10;;;;;;5070665;28;19960;-89
2022/05/06 11:55:22;;;;;;;;;;;16.80;83.00;;;;;;5068004;28;19919;-89
2022/05/06 11:57:48;;;;;;;;;;;16.80;82.90;;;;;;5072575;28;19949;-89
2022/05/06 12:00:14;;;;;;;;;;;16.80;83.10;;;;;;5064597;28;19944;-89
2022/05/06 12:02:47;;;;;;;;;;;16.80;83.30;;;;;;5047522;28;19953;-89
2022/05/06 12:05:13;;;;;;;;;;;16.80;83.50;;;;;;5066190;28;19957;-89
2022/05/06 12:07:41;;;;;;;;;;;16.90;83.90;;;;;;5072488;28;20044;-89
2022/05/06 12:10:08;;;;;;;;;;;17.00;84.30;;;;;;5072167;28;20478;-89
2022/05/06 12:12:33;;;;;;;;;;;17.00;84.30;;;;;;5069389;28;19985;-88
2022/05/06 12:15:08;;;;;;;;;;;17.00;83.90;;;;;;5072608;28;19967;-88
2022/05/06 12:17:36;;;;;;;;;;;17.00;83.80;;;;;;5086940;22;19991;-89
2022/05/06 12:20:01;;;;;;;;;;;17.00;83.60;;;;;;5072850;28;19942;-88
2022/05/06 12:22:28;;;;;;;;;;;16.90;83.70;;;;;;5072708;28;20305;-89
2022/05/06 12:24:58;;;;;;;;;;;16.90;83.80;;;;;;5071436;28;19954;-89
2022/05/06 12:27:27;;;;;;;;;;;16.90;84.40;;;;;;5071923;28;19963;-89
2022/05/06 12:29:54;;;;;;;;;;;16.80;83.00;;;;;;5071927;28;19969;-88
2022/05/06 12:32:19;;;;;;;;;;;16.70;83.40;;;;;;5072291;28;19965;-88
2022/05/06 12:34:45;;;;;;;;;;;16.70;83.40;;;;;;5071088;28;19950;-88
2022/05/06 12:37:18;;;;;;;;;;;16.80;83.90;;;;;;5077737;28;19964;-88
2022/05/06 12:39:45;;;;;;;;;;;16.80;84.00;;;;;;5072428;28;19990;-89
2022/05/06 12:42:23;;;;;;;;;;;16.80;84.10;;;;;;5071841;28;19977;-89
2022/05/06 12:44:48;;;;;;;;;;;16.80;83.10;;;;;;5070369;28;20430;-89
2022/05/06 12:49:59;;;;;;;;;;;17.00;83.10;;;;;;5072598;28;20029;-89
2022/05/06 12:52:25;;;;;;;;;;;17.20;83.00;;;;;;5073310;28;20035;-89
2022/05/06 12:54:50;;;;;;;;;;;17.20;82.60;;;;;;5069760;28;20124;-89
2022/05/06 12:57:17;;;;;;;;;;;17.30;82.70;;;;;;5071883;28;19972;-89
2022/05/06 12:59:43;;;;;;;;;;;17.40;82.60;;;;;;5072698;28;20040;-89
2022/05/06 13:02:09;;;;;;;;;;;17.50;83.10;;;;;;5066299;28;19973;-89
2022/05/06 13:04:36;;;;;;;;;;;17.50;82.50;;;;;;5068036;28;20334;-88
2022/05/06 13:07:02;;;;;;;;;;;17.40;82.90;;;;;;5066567;28;19951;-89
2022/05/06 13:09:27;;;;;;;;;;;17.30;82.50;;;;;;5066346;28;19964;-88
2022/05/06 13:11:53;;;;;;;;;;;17.10;83.00;;;;;;5056642;28;20269;-88
2022/05/06 13:14:21;;;;;;;;;;;17.10;84.20;;;;;;5058503;28;19967;-89
2022/05/06 13:16:51;;;;;;;;;;;17.00;83.90;;;;;;5055179;28;19976;-89
2022/05/06 13:19:16;;;;;;;;;;;17.00;84.30;;;;;;5054069;28;19966;-89
2022/05/06 13:21:42;;;;;;;;;;;17.00;84.70;;;;;;5057826;28;19960;-89
2022/05/06 13:24:08;;;;;;;;;;;17.00;84.90;;;;;;5055145;28;19964;-89
2022/05/06 13:26:37;;;;;;;;;;;17.00;84.90;;;;;;5059882;28;19961;-89
2022/05/06 13:29:05;;;;;;;;;;;16.80;84.90;;;;;;5053386;28;20010;-89
2022/05/06 13:31:31;;;;;;;;;;;16.80;85.50;;;;;;5060315;28;20036;-88
2022/05/06 13:33:57;;;;;;;;;;;16.80;85.80;;;;;;5051687;28;20004;-89
2022/05/06 13:36:22;;;;;;;;;;;16.80;86.20;;;;;;5051566;28;20478;-89
2022/05/06 13:38:48;;;;;;;;;;;16.80;86.60;;;;;;5054968;28;20476;-89
2022/05/06 13:41:14;;;;;;;;;;;16.90;85.70;;;;;;5057280;28;19960;-89
2022/05/06 13:43:39;;;;;;;;;;;17.00;84.50;;;;;;5063091;28;19959;-89
2022/05/06 13:46:05;;;;;;;;;;;17.10;83.80;;;;;;5059063;28;19953;-89
2022/05/06 13:48:31;;;;;;;;;;;17.10;83.90;;;;;;5058520;28;20336;-89
2022/05/06 13:50:57;;;;;;;;;;;17.20;83.30;;;;;;5063581;28;19941;-89
2022/05/06 13:53:22;;;;;;;;;;;17.20;82.90;;;;;;5055967;28;20444;-89
2022/05/06 13:59:06;;;;;;;;;;;17.30;83.30;;;;;;5060216;28;20014;-89
2022/05/06 14:01:24;;;;;;;;;;;17.30;83.00;;;;;;5060915;28;19925;-88
2022/05/06 14:03:50;;;;;;;;;;;17.30;83.40;;;;;;5058002;28;19976;-89
2022/05/06 14:06:16;;;;;;;;;;;17.30;83.20;;;;;;5066789;28;20392;-89
2022/05/06 14:08:42;;;;;;;;;;;17.30;82.50;;;;;;5059984;28;19929;-89
2022/05/06 14:11:07;;;;;;;;;;;17.40;83.10;;;;;;5060823;28;19999;-89
2022/05/06 14:13:33;;;;;;;;;;;17.70;83.30;;;;;;5056814;28;19953;-89
2022/05/06 14:15:58;;;;;;;;;;;17.80;83.00;;;;;;5055678;28;19947;-89
2022/05/06 14:18:24;;;;;;;;;;;18.00;82.70;;;;;;5059368;28;19955;-89
2022/05/06 14:20:49;;;;;;;;;;;18.20;83.00;;;;;;5055035;28;19954;-89
2022/05/06 14:23:15;;;;;;;;;;;18.30;83.00;;;;;;5047563;28;20008;-89
2022/05/06 14:25:42;;;;;;;;;;;18.60;82.60;;;;;;5051873;28;19947;-89
2022/05/06 14:28:08;;;;;;;;;;;18.80;82.40;;;;;;5065026;28;20017;-89
2022/05/06 14:30:34;;;;;;;;;;;19.20;80.60;;;;;;5065393;28;19934;-89
2022/05/06 14:32:59;;;;;;;;;;;19.40;79.30;;;;;;5061626;28;19937;-89
2022/05/06 14:35:25;;;;;;;;;;;19.50;78.90;;;;;;5060413;28;19970;-89
2022/05/06 14:37:53;;;;;;;;;;;19.40;78.70;;;;;;5061151;28;19993;-89
2022/05/06 14:40:19;;;;;;;;;;;19.20;78.30;;;;;;5063618;28;19939;-89
2022/05/06 14:42:45;;;;;;;;;;;19.10;76.40;;;;;;5058258;28;19912;-89
2022/05/06 14:45:12;;;;;;;;;;;19.20;76.90;;;;;;5058498;28;19933;-89
2022/05/06 14:47:38;;;;;;;;;;;19.30;76.40;;;;;;5061234;28;20401;-89
2022/05/06 14:50:05;;;;;;;;;;;19.30;77.10;;;;;;5064451;28;19943;-89
2022/05/06 14:52:30;;;;;;;;;;;19.40;75.50;;;;;;5053721;28;20417;-89
2022/05/06 14:55:01;;;;;;;;;;;19.30;75.40;;;;;;5051369;28;19960;-89
2022/05/06 14:57:26;;;;;;;;;;;19.30;76.30;;;;;;5062732;28;19949;-89
2022/05/06 14:59:52;;;;;;;;;;;19.20;76.00;;;;;;5052970;28;19939;-89
2022/05/06 15:02:17;;;;;;;;;;;19.10;75.90;;;;;;5055849;28;19964;-89
2022/05/06 15:04:43;;;;;;;;;;;19.10;74.00;;;;;;5065384;28;19979;-89
2022/05/06 15:07:09;;;;;;;;;;;18.80;74.60;;;;;;5056823;28;19948;-89